Bourbonnais, IL (60914)

4:42 PM CST on March 04, 2015 (GMT -0600)
Quail hallow | Change Station
CLOSE
Current Station
Personal Weather Station
Location: Bradley, IL
Elevation: 669 ft
Nearby Weather Stations

Elev 669 ft 41.16 °N, 87.84 °W | Updated 7 minutes ago

Partly Cloudy
Partly Cloudy
19.8 °F
Feels Like 20 °F
N
1.1
Wind Variable Wind from West

Today
High -- | Low -- °F
--% Chance of Precip.
Yesterday
High -- | Low -- °F
Precip. -- in
6:21 AM 5:45 PM
Waxing Gibbous, 99% visible
Pressure 30.21 in
Visibility 10.0 miles
Clouds Clear
Windchill 20 °F
Dew Point 9 °F
Humidity 62%
Rainfall 0.00 in
Snow Depth Not available.
UV 1 out of 12
Pollen .70 out of 12
Air Quality Not available.
Flu Activity Not available.
METAR KIKK 042235Z AUTO 30011G14KT 10SM CLR M07/M13 A3021 RMK AO2 T10701130

More Conditions Fewer Conditions

Pressure 30.21 in
Visibility 10.0 miles
Clouds Clear
Windchill 20 °F
Dew Point 9 °F
Humidity 62%
Rainfall 0.00 in
Snow Depth Not available.
UV 1 out of 12
Pollen .70 out of 12
Air Quality Not available.
Flu Activity Not available.
METAR KIKK 042235Z AUTO 30011G14KT 10SM CLR M07/M13 A3021 RMK AO2 T10701130

More Conditions Fewer Conditions

10-Day Weather Forecast

Almanac

Astronomy

Mar. 04, 2015 Rise Set
Actual Time
Civil Twilight
Nautical Twilight
Astronomical Twilight
Moon
Length of Visible Light
Length of Day
Tomorrow will be .
, % of the Moon is Illuminated

Today's Extremes

State Highs State Lows

Community

WunderPhotos

Upload Photos

1,802,595 photos uploaded!

WunderBlogs® & News

Nearby

Air Quality

  Air Quality AQ Index Pollutant
Not available.

Snow Depth

Station Depth Elevation

Earthquake Activity

City Distance Mag. Time & Date
Minimum magnitude displayed is 2.5.

Coastal Water Temperatures

Place Temperature

Nearby Weather Stations